バンコク/スワンナプーム の空港の天気 - METARとTAF

スワンナプーム国際空港 ( VTBS / BKK ) - タイ サムットプラーカーン県 (バンコク近郊)
飛行場実況気象(Metar)
観測時間12/14 13:00 ICT (12/14 06:00 UTC)
風向・風速北東 5m/s
視程10km以上
天気現象
少しの雲 雲底高度 910m
気温29℃
湿度55%
気圧1014hPa
METARVTBS 140600Z 04010KT 360V060 9999 FEW030 29/19 Q1014 NOSIG
過去の天気等 Google飛行場航空写真 Wunderground天気予報

過去48時間のMETAR

飛行場予報(TAF)
発表時間: 12/14 12:00 ICT (12/14 05:00 UTC)
予報対象時間: 14日13時 ICT ~ 15日19時 ICT
風向・風速東北東 5m/s
視程10km以上
少しの雲 雲底高度 1220m
15日1時 ICT ~ 15日3時 ICT に徐々に
風向・風速北 3m/s
15日9時 ICT ~ 15日11時 ICT に徐々に
風向・風速東北東 5m/s
TAF VTBS 140500Z 1406/1512 07010KT 9999 FEW040
BECMG 1418/1420 01005KT
BECMG 1502/1504 07010KT